Time;durP1;ratioP1;P1;durP2;ratioP2;P2;SDS_P1;SDS_P2;PMS_P1;PMS_P2;Temp;Humidity;BMP_temperature;BMP_pressure;BME280_temperature;BME280_humidity;BME280_pressure;Samples;Min_cycle;Max_cycle;Signal;HPM_P1;HPM_P2
2023/02/23 00:01:20;;;;;;;52.38;26.75;;;10.70;99.90;;;;;;5074217;28;20025;-67
2023/02/23 00:03:48;;;;;;;47.40;28.30;;;10.70;99.90;;;;;;5076186;28;20108;-68
2023/02/23 00:06:14;;;;;;;57.95;27.65;;;10.60;99.90;;;;;;5058202;28;20057;-68
2023/02/23 00:08:40;;;;;;;56.90;28.27;;;10.50;99.90;;;;;;5058397;28;20020;-68
2023/02/23 00:11:11;;;;;;;54.33;27.67;;;10.60;99.90;;;;;;5076281;28;20503;-68
2023/02/23 00:13:37;;;;;;;52.53;29.25;;;10.50;99.90;;;;;;5076842;28;20468;-69
2023/02/23 00:16:05;;;;;;;;;;;10.50;99.90;;;;;;5078458;28;20114;-68
2023/02/23 00:18:39;;;;;;;48.53;28.48;;;10.40;99.90;;;;;;5076661;28;19985;-68
2023/02/23 00:21:05;;;;;;;51.78;29.67;;;10.40;99.90;;;;;;5058879;28;20396;-68
2023/02/23 00:23:31;;;;;;;56.57;31.40;;;10.50;99.90;;;;;;5076325;28;20025;-69
2023/02/23 00:25:58;;;;;;;53.83;31.47;;;10.40;99.90;;;;;;5075866;28;20021;-68
2023/02/23 00:28:23;;;;;;;57.90;31.85;;;10.40;99.90;;;;;;5075726;28;20669;-69
2023/02/23 00:30:49;;;;;;;58.47;33.17;;;10.40;99.90;;;;;;5057366;28;20028;-67
2023/02/23 00:33:15;;;;;;;58.10;32.57;;;10.30;99.90;;;;;;5057672;28;20500;-67
2023/02/23 00:35:41;;;;;;;55.60;32.17;;;10.40;99.90;;;;;;5057582;28;20482;-69
2023/02/23 00:38:07;;;;;;;58.60;33.28;;;10.30;99.90;;;;;;5075535;28;20031;-68
2023/02/23 00:40:32;;;;;;;55.67;32.38;;;10.30;99.90;;;;;;5075376;28;20020;-68
2023/02/23 00:42:59;;;;;;;61.47;35.40;;;10.40;99.90;;;;;;5075375;28;20024;-69
2023/02/23 00:45:25;;;;;;;57.58;33.97;;;10.30;99.90;;;;;;5075237;28;20021;-68
2023/02/23 00:47:50;;;;;;;61.80;35.58;;;10.30;99.90;;;;;;5058215;28;20071;-69
2023/02/23 00:50:16;;;;;;;61.90;36.10;;;10.30;99.90;;;;;;5077112;28;20028;-69
2023/02/23 00:52:43;;;;;;;70.63;37.05;;;10.30;99.90;;;;;;5076693;28;20257;-69
2023/02/23 00:55:10;;;;;;;61.67;36.20;;;10.20;99.90;;;;;;5076332;28;20028;-68
2023/02/23 00:57:36;;;;;;;68.95;37.05;;;10.20;99.90;;;;;;5075475;28;20028;-68
2023/02/23 01:00:19;;;;;;;58.70;34.85;;;10.20;99.90;;;;;;5075245;28;20434;-69
2023/02/23 01:02:48;;;;;;;60.83;34.70;;;10.30;99.90;;;;;;5057188;28;20067;-68
2023/02/23 01:05:15;;;;;;;70.43;36.88;;;10.30;99.90;;;;;;5075159;28;20095;-68
2023/02/23 01:07:41;;;;;;;63.85;36.33;;;10.20;99.90;;;;;;5057147;28;20027;-69
2023/02/23 01:10:18;;;;;;;59.57;33.13;;;10.20;99.90;;;;;;5075082;28;20380;-69
2023/02/23 01:12:46;;;;;;;59.22;34.75;;;10.30;99.90;;;;;;5075089;28;20263;-70
2023/02/23 01:15:12;;;;;;;59.00;33.83;;;10.40;99.90;;;;;;5056590;28;20511;-68
2023/02/23 01:17:37;;;;;;;59.00;34.50;;;10.40;99.90;;;;;;5074973;28;20064;-68
2023/02/23 01:20:14;;;;;;;60.47;33.67;;;10.30;99.90;;;;;;5057365;28;20099;-68
2023/02/23 01:22:41;;;;;;;59.85;34.97;;;10.40;99.90;;;;;;5074916;28;20025;-68
2023/02/23 01:25:07;;;;;;;67.25;38.00;;;10.30;99.90;;;;;;5074734;28;20441;-68
2023/02/23 01:27:34;;;;;;;71.50;40.58;;;10.20;99.90;;;;;;5075063;28;20037;-68
2023/02/23 01:30:00;;;;;;;61.83;36.38;;;10.10;99.90;;;;;;5074336;28;20016;-69
2023/02/23 01:32:25;;;;;;;67.50;37.20;;;10.20;99.90;;;;;;5056997;28;20476;-69
2023/02/23 01:34:51;;;;;;;66.70;38.10;;;10.20;99.90;;;;;;5056774;28;20362;-69
2023/02/23 01:37:16;;;;;;;66.47;37.63;;;10.10;99.90;;;;;;5056520;28;20108;-68
2023/02/23 01:39:42;;;;;;;62.03;36.17;;;10.10;99.90;;;;;;5056939;28;20115;-68
2023/02/23 01:42:12;;;;;;;63.20;35.93;;;10.20;99.90;;;;;;5074671;28;20520;-68
2023/02/23 01:44:38;;;;;;;65.80;37.72;;;10.20;99.90;;;;;;5056679;28;20360;-67
2023/02/23 01:47:04;;;;;;;65.73;37.43;;;10.20;99.90;;;;;;5074441;28;20013;-68
2023/02/23 01:49:31;;;;;;;66.43;37.97;;;10.30;99.90;;;;;;5074218;28;20070;-68
2023/02/23 01:52:09;;;;;;;64.90;35.67;;;10.20;99.90;;;;;;5074208;28;20131;-68
2023/02/23 01:54:40;;;;;;;58.10;33.20;;;10.30;99.90;;;;;;5074278;28;20029;-68
2023/02/23 01:57:07;;;;;;;60.20;35.90;;;10.30;99.90;;;;;;5075342;28;20487;-68
2023/02/23 01:59:38;;;;;;;59.53;34.50;;;10.30;99.90;;;;;;5074099;28;20020;-69
2023/02/23 02:02:04;;;;;;;59.92;34.13;;;10.30;99.90;;;;;;5074306;28;20028;-68
2023/02/23 02:04:37;;;;;;;65.77;35.30;;;10.30;99.90;;;;;;5074485;28;20150;-68
2023/02/23 02:07:03;;;;;;;64.82;35.00;;;10.30;99.90;;;;;;5074400;28;20052;-68
2023/02/23 02:09:36;;;;;;;61.63;36.58;;;10.20;99.90;;;;;;5055790;28;20024;-68
2023/02/23 02:12:07;;;;;;;58.83;33.53;;;10.20;99.90;;;;;;5055673;28;20127;-67
2023/02/23 02:14:34;;;;;;;65.05;35.78;;;10.20;99.90;;;;;;5055339;28;20115;-67
2023/02/23 02:17:25;;;;;;;59.75;34.28;;;10.20;99.90;;;;;;5073316;28;20380;-67
2023/02/23 02:20:44;;;;;;;55.65;33.55;;;10.20;99.90;;;;;;5055491;28;20060;-69
2023/02/23 02:23:31;;;;;;;57.97;33.55;;;10.30;99.90;;;;;;5041958;28;20036;-67
2023/02/23 02:26:20;;;;;;;60.25;32.28;;;10.20;99.90;;;;;;5073647;28;20112;-68
2023/02/23 02:29:04;;;;;;;54.78;30.63;;;10.20;99.90;;;;;;5073333;28;20550;-68
2023/02/23 02:32:09;;;;;;;54.25;30.42;;;10.30;99.90;;;;;;5073196;28;20062;-67
2023/02/23 02:34:47;;;;;;;50.17;29.83;;;10.30;99.90;;;;;;5055210;28;20024;-67
2023/02/23 02:37:29;;;;;;;48.60;30.25;;;10.40;99.90;;;;;;5073237;28;20025;-67
2023/02/23 02:40:22;;;;;;;57.20;31.38;;;10.30;99.90;;;;;;5073618;28;20029;-67
2023/02/23 02:43:08;;;;;;;54.10;31.13;;;10.20;99.90;;;;;;5055401;28;20233;-67
2023/02/23 02:45:48;;;;;;;54.40;29.55;;;10.20;99.90;;;;;;5072849;28;20499;-67
2023/02/23 02:48:29;;;;;;;52.67;29.83;;;10.30;99.90;;;;;;5073891;28;20086;-67
2023/02/23 02:51:08;;;;;;;51.53;29.92;;;10.30;99.90;;;;;;5074434;28;20024;-67
2023/02/23 02:53:49;;;;;;;51.53;29.75;;;10.30;99.90;;;;;;5074155;28;20020;-67
2023/02/23 02:56:18;;;;;;;52.28;30.10;;;10.30;99.90;;;;;;5073324;28;20020;-67
2023/02/23 02:58:45;;;;;;;58.15;30.35;;;10.40;99.90;;;;;;5073903;28;20022;-67
2023/02/23 04:19:07;;;;;;;49.63;25.33;;;10.00;99.90;;;;;;5014326;28;20033;-69
2023/02/23 04:21:32;;;;;;;41.83;22.37;;;10.00;99.90;;;;;;5014133;28;20552;-69
2023/02/23 04:23:58;;;;;;;45.20;23.87;;;10.10;99.90;;;;;;4997540;28;20030;-67
2023/02/23 04:26:24;;;;;;;41.10;23.67;;;10.00;99.90;;;;;;4997740;28;20038;-68
2023/02/23 04:28:49;;;;;;;42.90;24.57;;;10.10;99.90;;;;;;5013769;28;20033;-68
2023/02/23 04:31:17;;;;;;;44.80;24.93;;;10.10;99.90;;;;;;5013636;28;20113;-69
2023/02/23 04:33:43;;;;;;;41.80;24.33;;;10.10;99.90;;;;;;5045446;28;20033;-68
2023/02/23 04:36:08;;;;;;;40.80;22.83;;;10.10;99.90;;;;;;5075745;28;20032;-69
2023/02/23 04:38:34;;;;;;;37.70;23.27;;;10.20;99.90;;;;;;5057519;28;20111;-68
2023/02/23 04:40:59;;;;;;;42.90;23.47;;;10.30;99.90;;;;;;5057515;28;20032;-68
2023/02/23 04:43:25;;;;;;;39.03;23.33;;;10.30;99.90;;;;;;5057303;28;20025;-69
2023/02/23 04:45:50;;;;;;;46.77;26.60;;;10.30;99.90;;;;;;5075182;28;20538;-68
2023/02/23 04:48:16;;;;;;;40.60;23.23;;;10.20;99.90;;;;;;5075579;28;20021;-68
2023/02/23 04:50:41;;;;;;;43.80;24.13;;;10.20;99.90;;;;;;5075738;28;20348;-68
2023/02/23 04:53:07;;;;;;;42.80;23.73;;;10.00;99.90;;;;;;5075579;28;20130;-68
2023/02/23 04:55:32;;;;;;;40.83;23.93;;;10.10;99.90;;;;;;5075556;28;20107;-68
2023/02/23 04:58:00;;;;;;;42.47;22.50;;;10.10;99.90;;;;;;5057296;28;20127;-68
2023/02/23 05:00:28;;;;;;;41.85;23.98;;;10.20;99.90;;;;;;5093340;28;20039;-67
2023/02/23 05:02:54;;;;;;;39.42;22.80;;;10.10;99.90;;;;;;5095604;28;20020;-68
2023/02/23 05:05:20;;;;;;;46.55;24.45;;;10.10;99.90;;;;;;5095306;28;20026;-69
2023/02/23 05:07:46;;;;;;;37.63;22.17;;;10.10;99.90;;;;;;5095552;28;20112;-69
2023/02/23 05:10:11;;;;;;;40.35;23.02;;;10.00;99.90;;;;;;5095200;28;20157;-67
2023/02/23 05:12:37;;;;;;;39.80;22.80;;;10.00;99.90;;;;;;5095414;28;20477;-68
2023/02/23 05:15:03;;;;;;;38.83;22.03;;;10.10;99.90;;;;;;5096588;28;20048;-68
2023/02/23 05:17:28;;;;;;;39.65;23.05;;;10.10;99.90;;;;;;5097138;28;20027;-68
2023/02/23 05:19:55;;;;;;;39.37;21.30;;;10.10;99.90;;;;;;5097331;28;20024;-68
2023/02/23 05:22:20;;;;;;;37.08;21.00;;;10.10;99.90;;;;;;5095387;28;20188;-68
2023/02/23 05:24:46;;;;;;;36.20;21.52;;;10.20;99.90;;;;;;5076652;28;20069;-67
2023/02/23 05:27:12;;;;;;;39.37;22.30;;;10.20;99.90;;;;;;5094833;28;20023;-67
2023/02/23 05:29:39;;;;;;;40.95;21.98;;;10.20;99.90;;;;;;5076722;28;20848;-67
2023/02/23 05:32:04;;;;;;;35.15;22.25;;;10.20;99.90;;;;;;5094509;28;20089;-67
2023/02/23 05:34:30;;;;;;;37.63;22.10;;;10.10;99.90;;;;;;5094327;28;20064;-67
2023/02/23 05:36:55;;;;;;;37.17;21.37;;;10.10;99.90;;;;;;5094848;28;20070;-67
2023/02/23 05:39:21;;;;;;;39.97;21.90;;;10.10;99.90;;;;;;5094718;28;20078;-68
2023/02/23 05:41:47;;;;;;;38.33;21.87;;;10.20;99.90;;;;;;5076752;28;20023;-69
2023/02/23 05:44:12;;;;;;;35.33;20.07;;;10.20;99.90;;;;;;5094975;28;20016;-68
2023/02/23 05:46:38;;;;;;;35.53;20.43;;;10.20;99.90;;;;;;5094212;28;20075;-67
2023/02/23 05:49:03;;;;;;;35.17;21.07;;;10.20;99.90;;;;;;5076663;28;20027;-68
2023/02/23 05:51:31;;;;;;;39.10;22.57;;;10.10;99.90;;;;;;5094273;28;20028;-68
2023/02/23 05:53:57;;;;;;;40.53;21.85;;;10.00;99.90;;;;;;5093848;28;20020;-67
2023/02/23 05:56:23;;;;;;;41.50;22.97;;;10.00;99.90;;;;;;5087295;28;20028;-67
2023/02/23 05:58:51;;;;;;;37.78;22.67;;;10.00;99.90;;;;;;5082443;28;20278;-67
2023/02/23 06:01:17;;;;;;;39.80;22.52;;;10.00;99.90;;;;;;5073615;28;20039;-68
2023/02/23 06:03:44;;;;;;;38.20;22.08;;;10.00;99.90;;;;;;5074277;28;20020;-68
2023/02/23 06:06:10;;;;;;;39.40;22.10;;;9.90;99.90;;;;;;5088601;28;20381;-67
2023/02/23 06:08:36;;;;;;;37.75;22.38;;;9.90;99.90;;;;;;5085920;28;20024;-68
2023/02/23 06:11:02;;;;;;;40.28;22.13;;;9.90;99.90;;;;;;5080608;28;20106;-68
2023/02/23 06:13:28;;;;;;;;;;;10.00;99.90;;;;;;5087258;28;20031;-68
2023/02/23 06:15:54;;;;;;;38.65;21.45;;;10.00;99.90;;;;;;5068242;28;20360;-68
2023/02/23 06:18:20;;;;;;;36.57;21.50;;;10.00;99.90;;;;;;5090940;28;20115;-68
2023/02/23 06:20:46;;;;;;;;;;;10.10;99.90;;;;;;5086212;28;20024;-68
2023/02/23 06:23:12;;;;;;;35.58;20.13;;;10.20;99.90;;;;;;5094935;28;19904;-68
2023/02/23 06:25:39;;;;;;;41.30;23.15;;;10.20;99.90;;;;;;5076504;28;20424;-68
2023/02/23 06:28:06;;;;;;;38.45;20.75;;;10.20;99.90;;;;;;5098607;28;20106;-69
2023/02/23 06:30:32;;;;;;;37.63;21.15;;;10.20;99.90;;;;;;5099440;28;20500;-66
2023/02/23 06:32:57;;;;;;;34.17;20.20;;;10.20;99.90;;;;;;5082019;28;20028;-68
2023/02/23 06:35:23;;;;;;;38.77;20.67;;;10.20;99.90;;;;;;5081437;28;20069;-68
2023/02/23 06:37:48;;;;;;;38.17;21.80;;;10.20;99.90;;;;;;5100544;28;20025;-68
2023/02/23 06:40:14;;;;;;;37.93;21.30;;;10.20;99.90;;;;;;5099721;28;20334;-69
2023/02/23 06:42:39;;;;;;;38.50;21.80;;;10.30;99.90;;;;;;5100579;28;20032;-69
2023/02/23 06:45:05;;;;;;;43.13;21.77;;;10.30;99.90;;;;;;5097752;28;20105;-69
2023/02/23 06:47:31;;;;;;;37.88;21.88;;;10.30;99.90;;;;;;5095577;28;20476;-68
2023/02/23 06:49:58;;;;;;;37.83;21.70;;;10.30;99.90;;;;;;5094419;28;20024;-67
2023/02/23 06:52:25;;;;;;;34.88;21.23;;;10.30;99.90;;;;;;5085065;28;20668;-67
2023/02/23 06:54:50;;;;;;;39.85;22.17;;;10.30;99.90;;;;;;5094200;28;20024;-67
2023/02/23 06:57:16;;;;;;;39.40;20.70;;;10.40;99.90;;;;;;5086056;28;20491;-68
2023/02/23 06:59:41;;;;;;;40.60;21.87;;;10.40;99.90;;;;;;5084208;28;20267;-67
2023/02/23 07:02:10;;;;;;;35.37;20.10;;;10.40;99.90;;;;;;5093241;28;20476;-68
2023/02/23 07:04:35;;;;;;;40.10;21.70;;;10.40;99.90;;;;;;5097314;28;20025;-68
2023/02/23 07:07:01;;;;;;;39.63;21.87;;;10.30;99.90;;;;;;5097344;28;20028;-68
2023/02/23 07:09:27;;;;;;;41.08;21.73;;;10.40;99.90;;;;;;5096866;28;20020;-68
2023/02/23 07:11:52;;;;;;;35.80;20.93;;;10.50;99.90;;;;;;5097997;28;20035;-68
2023/02/23 07:14:18;;;;;;;36.90;20.70;;;10.50;99.90;;;;;;5097102;28;20091;-67
2023/02/23 07:16:43;;;;;;;37.97;21.43;;;10.50;99.90;;;;;;5097765;28;20032;-68
2023/02/23 07:19:09;;;;;;;37.10;19.43;;;10.60;99.90;;;;;;5096803;28;20024;-68
2023/02/23 07:21:34;;;;;;;45.43;21.33;;;10.60;99.90;;;;;;5096191;28;20043;-68
2023/02/23 07:24:03;;;;;;;37.27;20.70;;;10.60;99.90;;;;;;5077721;28;20030;-68
2023/02/23 07:26:29;;;;;;;36.10;20.95;;;10.60;99.90;;;;;;5094334;28;20111;-65
2023/02/23 07:28:55;;;;;;;38.92;23.52;;;10.60;99.90;;;;;;5096525;28;20063;-65
2023/02/23 07:31:20;;;;;;;37.10;22.73;;;10.50;99.90;;;;;;5097365;28;20118;-65
2023/02/23 07:33:46;;;;;;;42.03;22.67;;;10.40;99.90;;;;;;5096064;28;20036;-65
2023/02/23 07:36:12;;;;;;;40.73;22.90;;;10.40;99.90;;;;;;5096007;28;20035;-65
2023/02/23 07:38:37;;;;;;;37.30;23.38;;;10.40;99.90;;;;;;5096361;28;20090;-64
2023/02/23 07:41:04;;;;;;;42.40;22.17;;;10.50;99.90;;;;;;5095750;28;20384;-65
2023/02/23 07:43:29;;;;;;;40.22;22.40;;;10.60;99.90;;;;;;5095170;28;20069;-64
2023/02/23 07:45:59;;;;;;;42.70;23.47;;;10.80;99.90;;;;;;5095414;28;20115;-67
2023/02/23 07:48:25;;;;;;;34.92;21.33;;;10.80;99.90;;;;;;5072761;28;20036;-68
2023/02/23 07:50:50;;;;;;;37.97;22.23;;;10.90;99.90;;;;;;5076640;28;20024;-68
2023/02/23 07:53:16;;;;;;;35.17;21.70;;;11.00;99.90;;;;;;5055568;28;20021;-68
2023/02/23 07:55:41;;;;;;;40.20;23.37;;;10.90;99.90;;;;;;5075023;28;20031;-67
2023/02/23 07:58:07;;;;;;;36.83;21.93;;;11.00;99.90;;;;;;5073298;28;20060;-68
2023/02/23 08:00:35;;;;;;;39.10;21.92;;;10.80;99.90;;;;;;5092418;28;20024;-67
2023/02/23 08:03:01;;;;;;;33.50;20.83;;;10.80;99.90;;;;;;5096513;28;20020;-69
2023/02/23 08:05:27;;;;;;;36.33;22.27;;;10.70;99.90;;;;;;5096211;28;20487;-68
2023/02/23 08:07:54;;;;;;;36.50;22.00;;;10.80;99.90;;;;;;5095971;28;20263;-68
2023/02/23 08:10:20;;;;;;;36.80;21.70;;;11.00;99.90;;;;;;5095812;28;20425;-68
2023/02/23 08:12:46;;;;;;;32.65;20.77;;;11.20;99.90;;;;;;5095452;28;20112;-68
2023/02/23 08:15:11;;;;;;;33.47;19.70;;;11.40;99.90;;;;;;5094215;28;20040;-67
2023/02/23 08:17:37;;;;;;;32.47;21.20;;;11.50;99.90;;;;;;5095625;28;20103;-67
2023/02/23 08:20:04;;;;;;;36.28;20.63;;;11.30;99.90;;;;;;5095436;28;20446;-68
2023/02/23 08:22:30;;;;;;;32.90;20.90;;;11.30;99.90;;;;;;5078630;28;20110;-68
2023/02/23 08:24:55;;;;;;;32.03;20.23;;;11.40;99.90;;;;;;5100871;28;20024;-68
2023/02/23 08:27:21;;;;;;;36.13;19.90;;;11.50;99.90;;;;;;5100132;28;20078;-68
2023/02/23 08:29:47;;;;;;;33.97;19.70;;;11.40;99.90;;;;;;5098357;28;20066;-67
2023/02/23 08:32:12;;;;;;;36.20;18.47;;;11.60;99.90;;;;;;5080560;28;20115;-68
2023/02/23 08:34:39;;;;;;;29.37;18.47;;;11.70;99.90;;;;;;5098837;28;20123;-69
2023/02/23 08:37:05;;;;;;;31.98;17.90;;;11.80;99.90;;;;;;5098109;28;20024;-68
2023/02/23 08:39:30;;;;;;;30.88;18.85;;;11.80;99.90;;;;;;5097661;28;20491;-67
2023/02/23 08:41:56;;;;;;;31.57;19.00;;;11.60;99.90;;;;;;5098385;28;20032;-67
2023/02/23 08:44:21;;;;;;;31.83;17.60;;;11.60;99.90;;;;;;5100903;28;20486;-67
2023/02/23 08:46:47;;;;;;;33.53;19.63;;;11.70;99.90;;;;;;5100923;28;20488;-68
2023/02/23 08:49:12;;;;;;;29.10;18.60;;;11.60;99.90;;;;;;5098610;28;20391;-67
2023/02/23 08:51:39;;;;;;;29.53;17.80;;;11.60;99.90;;;;;;5099178;28;20028;-68
2023/02/23 08:54:11;;;;;;;32.10;18.80;;;11.80;99.90;;;;;;5098050;28;20024;-68
2023/02/23 08:56:37;;;;;;;31.40;17.85;;;12.00;99.90;;;;;;5096790;28;20024;-68
2023/02/23 08:59:02;;;;;;;33.35;19.48;;;12.10;99.90;;;;;;5097212;28;20498;-68
2023/02/23 09:01:28;;;;;;;32.37;19.03;;;12.20;99.90;;;;;;5097751;28;20043;-67
2023/02/23 09:03:54;;;;;;;26.70;16.40;;;12.10;99.90;;;;;;5098513;28;20265;-67
2023/02/23 09:06:21;;;;;;;27.73;16.70;;;12.10;99.90;;;;;;5077788;28;20027;-68
2023/02/23 09:08:47;;;;;;;28.08;16.10;;;12.10;99.90;;;;;;5095827;28;20027;-68
2023/02/23 09:11:12;;;;;;;28.05;17.77;;;11.90;99.90;;;;;;5095648;28;20388;-68
2023/02/23 09:13:38;;;;;;;24.50;15.70;;;12.00;99.90;;;;;;5096035;28;20117;-67
2023/02/23 09:16:06;;;;;;;25.47;16.07;;;12.00;99.90;;;;;;5095618;28;20078;-67
2023/02/23 09:18:32;;;;;;;24.85;14.93;;;12.00;99.90;;;;;;5095683;28;20123;-68
2023/02/23 09:20:58;;;;;;;21.97;14.03;;;12.20;99.90;;;;;;5095879;28;20031;-66
2023/02/23 09:23:27;;;;;;;25.33;15.40;;;12.40;99.90;;;;;;5077965;28;20119;-67
2023/02/23 09:25:52;;;;;;;23.02;14.90;;;12.60;99.90;;;;;;5096201;28;20024;-67
2023/02/23 09:28:19;;;;;;;22.83;14.57;;;12.70;99.90;;;;;;5077907;28;20039;-68
2023/02/23 09:30:45;;;;;;;;;;;13.10;99.90;;;;;;5075167;28;20027;-68
2023/02/23 09:33:11;;;;;;;24.17;15.02;;;13.30;99.90;;;;;;5073693;28;20001;-68
2023/02/23 09:35:37;;;;;;;23.60;12.98;;;14.30;99.90;;;;;;5074708;28;20028;-68
2023/02/23 09:38:05;;;;;;;22.08;12.55;;;14.90;99.90;;;;;;5074680;28;20127;-68
2023/02/23 09:40:52;;;;;;;21.50;12.27;;;15.00;99.90;;;;;;5088882;28;20338;-69
2023/02/23 09:43:36;;;;;;;20.53;11.80;;;14.80;99.90;;;;;;5096294;28;20050;-68
2023/02/23 09:46:28;;;;;;;18.20;10.93;;;14.80;99.90;;;;;;5097009;28;20021;-67
2023/02/23 09:48:57;;;;;;;17.45;10.65;;;14.60;99.90;;;;;;5095020;28;20122;-67
2023/02/23 09:51:23;;;;;;;17.30;11.20;;;14.60;99.90;;;;;;5094607;28;20537;-67
2023/02/23 09:53:51;;;;;;;21.77;11.40;;;14.60;99.90;;;;;;5094857;28;20373;-68
2023/02/23 09:56:35;;;;;;;20.15;11.80;;;14.90;99.90;;;;;;5095192;28;20024;-67
2023/02/23 09:59:03;;;;;;;20.38;12.82;;;15.10;99.90;;;;;;5094516;28;20050;-67
2023/02/23 10:01:46;;;;;;;20.08;12.95;;;15.20;99.90;;;;;;5094192;28;20071;-67
2023/02/23 10:04:29;;;;;;;19.67;11.98;;;15.20;99.90;;;;;;5076067;28;20369;-68
2023/02/23 10:07:17;;;;;;;21.90;13.70;;;15.40;99.90;;;;;;5076280;28;20016;-68
2023/02/23 10:10:04;;;;;;;19.92;12.93;;;15.70;99.90;;;;;;5076063;28;20020;-68
2023/02/23 10:13:04;;;;;;;21.35;12.43;;;17.00;99.90;;;;;;5094239;28;20039;-68
2023/02/23 10:15:54;;;;;;;17.77;12.27;;;18.50;99.90;;;;;;5093801;28;20036;-68
2023/02/23 10:18:34;;;;;;;20.75;13.10;;;19.20;99.90;;;;;;5093491;28;20028;-68
2023/02/23 10:21:07;;;;;;;16.30;11.23;;;18.80;99.90;;;;;;5093890;28;20372;-67
2023/02/23 10:23:45;;;;;;;19.58;12.48;;;18.60;99.90;;;;;;5093704;28;20031;-67
2023/02/23 10:26:16;;;;;;;22.60;13.20;;;18.70;99.90;;;;;;5075348;28;20024;-68
2023/02/23 10:28:42;;;;;;;21.00;13.18;;;17.80;99.90;;;;;;5094635;28;20020;-68
2023/02/23 10:31:40;;;;;;;24.05;13.48;;;17.00;99.90;;;;;;5094386;28;20028;-68
2023/02/23 10:34:13;;;;;;;21.25;13.35;;;16.00;99.90;;;;;;5092963;28;20044;-68
2023/02/23 10:36:58;;;;;;;24.15;13.30;;;15.20;99.90;;;;;;5093748;28;20396;-67
2023/02/23 10:39:25;;;;;;;20.92;13.38;;;14.80;99.90;;;;;;5093277;28;20024;-67
2023/02/23 10:41:51;;;;;;;22.58;13.95;;;14.70;99.90;;;;;;5093364;28;20024;-68
2023/02/23 10:44:24;;;;;;;23.30;13.18;;;14.50;99.90;;;;;;5092871;28;20374;-68
2023/02/23 10:47:01;;;;;;;27.70;14.27;;;14.40;99.90;;;;;;5093012;28;20020;-67
2023/02/23 10:49:39;;;;;;;24.00;14.00;;;14.30;99.90;;;;;;5075202;28;20366;-68
2023/02/23 10:52:06;;;;;;;25.00;13.27;;;14.10;99.90;;;;;;5094124;28;20066;-68
2023/02/23 10:54:37;;;;;;;23.13;13.68;;;13.90;99.90;;;;;;5093395;28;20024;-67
2023/02/23 10:57:06;;;;;;;23.95;14.70;;;13.90;99.90;;;;;;5093713;28;20070;-68
2023/02/23 10:59:33;;;;;;;24.52;13.77;;;13.80;99.90;;;;;;5093553;28;20019;-68
2023/02/23 11:01:58;;;;;;;28.05;14.75;;;13.90;99.90;;;;;;5094155;28;20463;-67
2023/02/23 11:04:29;;;;;;;21.00;12.97;;;14.20;99.90;;;;;;5094328;28;20107;-68
2023/02/23 11:07:14;;;;;;;27.45;13.48;;;14.30;99.90;;;;;;5093454;28;20024;-68
2023/02/23 11:09:40;;;;;;;24.48;13.48;;;14.50;99.90;;;;;;5075634;28;20544;-68
2023/02/23 11:12:41;;;;;;;23.15;13.10;;;14.60;99.90;;;;;;5093937;28;20146;-68
2023/02/23 11:15:33;;;;;;;25.00;12.85;;;14.50;99.90;;;;;;5086359;22;20098;-70
2023/02/23 11:18:03;;;;;;;21.48;12.93;;;14.50;99.90;;;;;;5075586;28;20016;-70
2023/02/23 11:20:38;;;;;;;24.73;13.18;;;14.40;99.90;;;;;;5076058;28;20027;-70
2023/02/23 11:23:30;;;;;;;20.73;12.90;;;14.40;99.90;;;;;;5075849;28;20545;-71
2023/02/23 11:26:21;;;;;;;20.05;11.90;;;14.40;99.90;;;;;;5075204;28;20058;-70
2023/02/23 11:28:52;;;;;;;22.02;12.15;;;14.20;99.90;;;;;;5064338;28;20060;-70
2023/02/23 11:31:21;;;;;;;20.88;11.65;;;14.10;99.90;;;;;;5092945;28;20028;-70
2023/02/23 11:33:48;;;;;;;21.48;11.63;;;13.90;99.90;;;;;;5092956;28;20499;-70
2023/02/23 11:36:22;;;;;;;19.55;11.93;;;13.80;99.90;;;;;;5093376;28;20069;-70
2023/02/23 11:39:06;;;;;;;19.95;12.02;;;13.80;99.90;;;;;;5093363;28;20020;-71
2023/02/23 11:41:34;;;;;;;17.88;10.65;;;13.80;99.90;;;;;;5093433;28;20126;-71
2023/02/23 11:44:01;;;;;;;27.42;12.80;;;13.90;99.90;;;;;;5092720;28;20016;-69
2023/02/23 11:46:29;;;;;;;19.55;12.38;;;13.70;99.90;;;;;;5093190;28;20016;-70
2023/02/23 11:49:17;;;;;;;20.95;12.13;;;13.80;99.90;;;;;;5093155;28;20028;-71
2023/02/23 11:51:48;;;;;;;23.27;11.73;;;13.80;99.90;;;;;;5075147;28;20027;-69
2023/02/23 11:54:32;;;;;;;16.40;10.52;;;14.20;99.90;;;;;;5093302;28;20024;-71
2023/02/23 11:57:01;;;;;;;21.48;12.38;;;14.30;99.90;;;;;;5076702;28;20464;-70
2023/02/23 11:59:30;;;;;;;18.48;11.38;;;14.30;99.90;;;;;;5077254;28;20066;-70
2023/02/23 12:02:14;;;;;;;18.02;11.48;;;14.40;99.90;;;;;;5096427;28;20499;-71
2023/02/23 12:04:45;;;;;;;26.38;12.00;;;14.50;99.90;;;;;;5096721;28;20024;-70
2023/02/23 12:07:23;;;;;;;20.52;12.15;;;14.40;99.90;;;;;;5096857;28;20023;-70
2023/02/23 12:09:58;;;;;;;19.92;11.88;;;14.40;99.90;;;;;;5096643;28;20103;-70
2023/02/23 12:12:26;;;;;;;21.13;10.88;;;14.50;99.90;;;;;;5096549;28;20020;-70
2023/02/23 12:15:03;;;;;;;18.92;11.63;;;14.40;99.90;;;;;;5077852;28;20123;-69
2023/02/23 12:17:49;;;;;;;20.90;11.43;;;14.50;99.90;;;;;;5096251;28;20020;-70
2023/02/23 12:20:22;;;;;;;21.65;11.60;;;14.60;99.90;;;;;;5096355;28;20548;-71
2023/02/23 12:22:53;;;;;;;16.60;10.43;;;14.70;99.90;;;;;;5078078;28;20054;-70
2023/02/23 12:25:22;;;;;;;21.15;10.57;;;14.70;99.90;;;;;;5096293;28;20028;-70
2023/02/23 12:27:56;;;;;;;24.15;10.73;;;15.00;99.90;;;;;;5077771;28;20020;-70
2023/02/23 12:30:47;;;;;;;17.70;10.10;;;14.90;99.90;;;;;;5095996;28;20050;-70
2023/02/23 12:33:19;;;;;;;15.13;10.38;;;14.80;99.90;;;;;;5077889;28;20047;-70
2023/02/23 12:35:54;;;;;;;23.38;10.20;;;14.80;99.90;;;;;;5078622;28;20020;-70
2023/02/23 12:38:32;;;;;;;17.52;10.90;;;14.80;99.90;;;;;;5077848;28;20028;-70
2023/02/23 12:41:17;;;;;;;18.27;10.20;;;14.90;99.90;;;;;;5096097;28;20392;-70
2023/02/23 12:43:50;;;;;;;16.83;9.88;;;14.90;99.90;;;;;;5077834;28;20051;-69
2023/02/23 12:46:21;;;;;;;16.45;9.23;;;14.90;99.90;;;;;;5076547;28;20124;-71
2023/02/23 12:49:12;;;;;;;18.27;9.32;;;15.00;99.90;;;;;;5096015;28;20016;-70
2023/02/23 12:51:53;;;;;;;17.23;8.98;;;15.10;99.90;;;;;;5096127;28;20020;-70
2023/02/23 12:54:19;;;;;;;16.95;8.85;;;15.20;99.90;;;;;;5095850;28;20032;-71
2023/02/23 12:57:22;;;;;;;18.23;8.70;;;15.20;99.90;;;;;;5076794;28;20028;-70
2023/02/23 13:00:09;;;;;;;14.23;8.73;;;15.10;99.90;;;;;;5095574;28;20478;-70
2023/02/23 13:02:48;;;;;;;20.15;9.55;;;15.00;99.90;;;;;;5096052;28;20024;-71
2023/02/23 13:05:30;;;;;;;14.80;8.70;;;15.00;99.90;;;;;;5077534;28;20020;-70
2023/02/23 13:07:55;;;;;;;14.38;8.45;;;15.00;99.90;;;;;;5077277;28;20027;-70
2023/02/23 13:11:01;;;;;;;17.00;8.63;;;15.00;99.90;;;;;;5077484;28;20103;-70
2023/02/23 13:13:42;;;;;;;13.48;8.05;;;15.00;99.90;;;;;;5096420;28;20368;-71
2023/02/23 13:16:18;;;;;;;17.25;8.52;;;14.90;99.90;;;;;;5077240;28;20464;-70
2023/02/23 13:18:59;;;;;;;12.38;7.85;;;14.90;99.90;;;;;;5096251;28;20032;-71
2023/02/23 13:21:40;;;;;;;14.15;8.73;;;14.80;99.90;;;;;;5096655;28;20070;-70
2023/02/23 13:24:15;;;;;;;17.52;9.23;;;14.70;99.90;;;;;;5077266;28;20101;-69
2023/02/23 13:27:00;;;;;;;13.73;7.97;;;14.80;99.90;;;;;;5078211;28;20389;-70
2023/02/23 13:29:36;;;;;;;18.42;8.57;;;14.90;99.90;;;;;;5095513;28;20050;-69
2023/02/23 13:32:04;;;;;;;20.70;10.15;;;15.00;99.90;;;;;;5095745;28;20032;-70
2023/02/23 13:34:38;;;;;;;21.10;9.45;;;15.10;99.90;;;;;;5077404;28;20028;-70
2023/02/23 13:37:05;;;;;;;18.95;9.68;;;15.20;99.90;;;;;;5095432;28;20502;-70
2023/02/23 13:39:34;;;;;;;16.77;9.10;;;15.00;99.90;;;;;;5095277;28;20076;-70
2023/02/23 13:42:26;;;;;;;15.43;8.60;;;14.80;99.90;;;;;;5095533;28;20024;-71
2023/02/23 13:45:21;;;;;;;18.83;9.13;;;14.70;99.90;;;;;;5095153;28;20478;-71
2023/02/23 13:48:02;;;;;;;13.25;8.73;;;14.60;99.90;;;;;;5096372;28;20016;-70
2023/02/23 13:50:39;;;;;;;17.52;9.98;;;14.50;99.90;;;;;;5096254;28;20027;-71
2023/02/23 13:53:06;;;;;;;15.65;9.20;;;14.50;99.90;;;;;;5076975;28;20388;-70
2023/02/23 13:55:46;;;;;;;16.95;8.82;;;14.50;99.90;;;;;;5076515;28;20031;-71
2023/02/23 13:58:29;;;;;;;21.30;9.43;;;14.40;99.90;;;;;;5076654;28;20036;-71
2023/02/23 14:01:09;;;;;;;15.45;8.50;;;14.40;99.90;;;;;;5094253;28;20020;-70
2023/02/23 14:03:42;;;;;;;15.98;9.07;;;14.60;99.90;;;;;;5095319;28;20016;-70
2023/02/23 14:06:13;;;;;;;16.75;9.65;;;14.50;99.90;;;;;;5076438;28;20052;-70